createdAt,value
2018-09-29T00:00:27.802Z,2.20
2018-09-29T00:02:56.273Z,3.67
2018-09-29T00:05:24.698Z,3.33
2018-09-29T00:07:52.993Z,2.70
2018-09-29T00:10:21.224Z,3.30
2018-09-29T00:12:49.529Z,3.20
2018-09-29T00:15:18.016Z,2.33
2018-09-29T00:17:46.165Z,2.97
2018-09-29T00:20:14.607Z,3.00
2018-09-29T00:22:43.273Z,2.60
2018-09-29T00:25:11.761Z,2.93
2018-09-29T00:27:39.930Z,2.73
2018-09-29T00:30:08.097Z,2.60
2018-09-29T00:32:36.297Z,2.27
2018-09-29T00:35:04.681Z,2.60
2018-09-29T00:37:32.812Z,2.40
2018-09-29T00:40:01.454Z,2.90
2018-09-29T00:42:29.615Z,2.57
2018-09-29T00:44:57.996Z,3.00
2018-09-29T00:47:26.478Z,3.00
2018-09-29T00:49:54.644Z,3.20
2018-09-29T00:52:23.162Z,3.10
2018-09-29T00:54:51.318Z,3.57
2018-09-29T00:57:19.457Z,3.13
2018-09-29T00:59:47.770Z,3.20
2018-09-29T01:02:16.328Z,3.93
2018-09-29T01:04:45.049Z,3.50
2018-09-29T01:07:13.185Z,3.10
2018-09-29T01:09:41.672Z,3.53
2018-09-29T01:12:10.150Z,3.60
2018-09-29T01:14:38.705Z,4.10
2018-09-29T01:17:06.920Z,2.87
2018-09-29T01:19:35.762Z,3.13
2018-09-29T01:22:04.464Z,3.10
2018-09-29T01:24:32.988Z,2.60
2018-09-29T01:27:01.933Z,2.80
2018-09-29T01:29:30.352Z,2.50
2018-09-29T01:31:59.081Z,3.10
2018-09-29T01:34:27.584Z,2.30
2018-09-29T01:36:56.103Z,3.50
2018-09-29T01:39:24.293Z,2.83
2018-09-29T01:41:52.444Z,2.57
2018-09-29T01:44:20.605Z,2.53
2018-09-29T01:46:48.777Z,2.23
2018-09-29T01:49:16.941Z,2.20
2018-09-29T01:51:45.406Z,2.43
2018-09-29T01:54:13.586Z,3.00
2018-09-29T01:56:42.077Z,2.60
2018-09-29T01:59:10.562Z,2.57
2018-09-29T02:01:39.058Z,2.10
2018-09-29T02:04:07.256Z,2.20
2018-09-29T02:06:35.677Z,3.30
2018-09-29T02:09:04.262Z,2.50
2018-09-29T02:11:32.429Z,2.63
2018-09-29T02:14:00.581Z,3.73
2018-09-29T02:16:29.078Z,2.47
2018-09-29T02:18:57.526Z,2.90
2018-09-29T02:21:26.013Z,2.77
2018-09-29T02:23:54.491Z,3.30
2018-09-29T02:26:22.833Z,3.03
2018-09-29T02:28:51.047Z,3.30
2018-09-29T02:31:19.384Z,4.40
2018-09-29T02:33:47.609Z,3.17
2018-09-29T02:36:25.269Z,2.93
2018-09-29T02:38:53.517Z,2.60
2018-09-29T02:41:21.745Z,2.93
2018-09-29T02:43:49.983Z,2.70
2018-09-29T02:46:18.142Z,2.93
2018-09-29T02:48:46.640Z,2.90
2018-09-29T02:51:15.295Z,3.40
2018-09-29T02:53:43.774Z,3.27
2018-09-29T02:56:11.920Z,3.87
2018-09-29T02:58:40.074Z,4.40
2018-09-29T03:01:08.580Z,4.57
2018-09-29T03:03:36.718Z,3.40
2018-09-29T03:06:05.211Z,3.70
2018-09-29T03:08:33.354Z,3.43
2018-09-29T03:11:02.116Z,4.50
2018-09-29T03:13:30.573Z,3.77
2018-09-29T03:15:58.744Z,4.20
2018-09-29T03:18:26.896Z,3.37
2018-09-29T03:20:55.633Z,3.80
2018-09-29T03:23:24.022Z,3.20
2018-09-29T03:25:52.514Z,3.30
2018-09-29T03:28:20.993Z,3.60
2018-09-29T03:30:49.145Z,3.27
2018-09-29T03:33:17.908Z,3.03
2018-09-29T03:35:46.316Z,3.40
2018-09-29T03:38:14.461Z,2.83
2018-09-29T03:40:42.942Z,3.13
2018-09-29T03:43:11.413Z,3.17
2018-09-29T03:45:39.893Z,3.03
2018-09-29T03:48:08.669Z,3.30
2018-09-29T03:50:36.812Z,3.20
2018-09-29T03:53:05.209Z,3.20
2018-09-29T03:55:33.776Z,3.27
2018-09-29T03:58:02.183Z,3.40
2018-09-29T04:00:30.742Z,3.67
2018-09-29T04:02:58.890Z,3.30
2018-09-29T04:05:27.301Z,3.30
2018-09-29T04:07:55.457Z,3.13
2018-09-29T04:10:23.929Z,2.90
2018-09-29T04:12:52.437Z,3.37
2018-09-29T04:15:20.901Z,2.90
2018-09-29T04:17:49.070Z,3.30
2018-09-29T04:20:17.227Z,3.40
2018-09-29T04:22:45.718Z,4.33
2018-09-29T04:25:14.185Z,4.03
2018-09-29T04:27:42.325Z,3.90
2018-09-29T04:30:10.465Z,4.23
2018-09-29T04:32:38.972Z,3.73
2018-09-29T04:35:07.143Z,3.23
2018-09-29T04:37:35.621Z,3.40
2018-09-29T04:40:04.129Z,3.60
2018-09-29T04:42:32.687Z,3.83
2018-09-29T04:47:35.644Z,3.43
2018-09-29T04:50:04.057Z,4.57
2018-09-29T04:52:32.573Z,4.43
2018-09-29T04:55:01.002Z,3.60
2018-09-29T04:57:29.161Z,3.83
2018-09-29T04:59:57.397Z,3.87
2018-09-29T05:02:26.168Z,4.63
2018-09-29T05:04:54.300Z,3.90
2018-09-29T05:07:22.448Z,4.50
2018-09-29T05:09:50.925Z,4.40
2018-09-29T05:12:19.435Z,5.10
2018-09-29T05:14:48.149Z,5.27
2018-09-29T05:17:16.633Z,5.10
2018-09-29T05:19:45.117Z,4.97
2018-09-29T05:22:13.630Z,4.87
2018-09-29T05:24:41.841Z,4.30
2018-09-29T05:27:09.988Z,3.80
2018-09-29T05:29:38.784Z,4.27
2018-09-29T05:32:07.281Z,4.03
2018-09-29T05:34:35.752Z,4.33
2018-09-29T05:37:04.241Z,3.57
2018-09-29T05:39:32.388Z,4.03
2018-09-29T05:42:01.173Z,4.80
2018-09-29T05:45:37.608Z,5.30
2018-09-29T05:48:06.003Z,3.80
2018-09-29T05:50:34.341Z,3.63
2018-09-29T05:53:02.599Z,4.20
2018-09-29T05:55:30.723Z,3.53
2018-09-29T05:57:59.197Z,4.90
2018-09-29T06:00:31.296Z,3.60
2018-09-29T06:03:01.509Z,4.20
2018-09-29T06:05:30.068Z,3.53
2018-09-29T06:07:58.897Z,3.50
2018-09-29T06:10:27.588Z,3.30
2018-09-29T06:12:55.749Z,3.23
2018-09-29T06:15:23.886Z,3.57
2018-09-29T06:17:52.654Z,2.72
2018-09-29T06:20:21.104Z,3.15
2018-09-29T06:22:49.860Z,2.67
2018-09-29T06:25:18.333Z,2.80
2018-09-29T06:27:46.535Z,3.17
2018-09-29T06:30:15.168Z,2.57
2018-09-29T06:32:43.585Z,2.70
2018-09-29T06:35:12.191Z,2.97
2018-09-29T06:37:40.632Z,4.13
2018-09-29T06:40:09.132Z,3.73
2018-09-29T06:42:37.916Z,2.70
2018-09-29T06:45:07.409Z,3.63
2018-09-29T06:47:35.729Z,5.03
2018-09-29T06:50:04.029Z,4.87
2018-09-29T06:52:32.832Z,3.87
2018-09-29T06:55:01.076Z,4.63
2018-09-29T06:57:29.509Z,4.63
2018-09-29T06:59:58.103Z,4.60
2018-09-29T07:02:26.504Z,3.75
2018-09-29T07:04:54.647Z,3.70
2018-09-29T07:07:23.267Z,3.93
2018-09-29T07:09:51.615Z,2.97
2018-09-29T07:12:20.344Z,3.98
2018-09-29T07:14:48.822Z,3.57
2018-09-29T07:17:17.481Z,3.37
2018-09-29T07:19:45.772Z,4.97
2018-09-29T07:22:13.904Z,2.53
2018-09-29T07:24:42.384Z,3.37
2018-09-29T07:27:11.215Z,2.50
2018-09-29T07:29:39.992Z,2.60
2018-09-29T07:32:12.327Z,2.95
2018-09-29T07:34:43.104Z,2.73
2018-09-29T07:37:14.327Z,2.53
2018-09-29T07:39:44.465Z,2.90
2018-09-29T07:42:13.015Z,2.20
2018-09-29T07:44:41.496Z,2.60
2018-09-29T07:47:09.921Z,2.00
2018-09-29T07:49:45.292Z,2.33
2018-09-29T07:52:13.717Z,2.22
2018-09-29T07:54:41.880Z,2.30
2018-09-29T07:57:13.260Z,3.30
2018-09-29T07:59:42.193Z,2.27
2018-09-29T08:02:14.406Z,3.13
2018-09-29T08:04:43.084Z,2.73
2018-09-29T08:07:15.056Z,2.53
2018-09-29T08:09:46.912Z,2.73
2018-09-29T08:12:15.401Z,2.50
2018-09-29T08:15:43.359Z,2.37
2018-09-29T08:18:15.321Z,3.33
2018-09-29T08:20:44.077Z,3.23
2018-09-29T08:23:12.224Z,2.60
2018-09-29T08:25:40.364Z,3.30
2018-09-29T08:28:08.813Z,2.97
2018-09-29T08:30:43.056Z,3.08
2018-09-29T08:33:11.216Z,3.07
2018-09-29T08:35:39.349Z,3.10
2018-09-29T08:38:08.157Z,3.80
2018-09-29T08:40:36.665Z,3.00
2018-09-29T08:43:04.893Z,2.23
2018-09-29T08:45:33.369Z,2.50
2018-09-29T08:48:01.781Z,1.87
2018-09-29T08:50:30.449Z,1.60
2018-09-29T08:52:59.674Z,2.30
2018-09-29T08:55:32.778Z,1.90
2018-09-29T08:58:01.613Z,2.07
2018-09-29T09:00:30.217Z,2.00
2018-09-29T09:02:58.881Z,2.03
2018-09-29T09:05:30.906Z,1.97
2018-09-29T09:07:59.621Z,2.10
2018-09-29T09:10:28.185Z,2.40
2018-09-29T09:12:56.453Z,2.40
2018-09-29T09:15:25.501Z,2.35
2018-09-29T09:17:58.660Z,1.80
2018-09-29T09:20:32.863Z,1.67
2018-09-29T09:23:01.236Z,1.80
2018-09-29T09:25:29.520Z,1.80
2018-09-29T09:27:57.900Z,2.00
2018-09-29T09:30:26.068Z,2.30
2018-09-29T09:32:58.664Z,1.70
2018-09-29T09:35:28.742Z,2.03
2018-09-29T09:37:57.208Z,1.90
2018-09-29T09:40:25.457Z,1.40
2018-09-29T09:42:54.213Z,1.53
2018-09-29T09:45:22.352Z,1.30
2018-09-29T09:47:50.820Z,1.40
2018-09-29T09:50:20.593Z,1.47
2018-09-29T09:52:49.724Z,1.00
2018-09-29T09:55:25.170Z,1.07
2018-09-29T09:57:54.032Z,2.00
2018-09-29T10:00:33.512Z,1.63
2018-09-29T10:03:07.277Z,1.40
2018-09-29T10:05:35.433Z,1.60
2018-09-29T10:08:04.181Z,1.82
2018-09-29T10:10:32.907Z,1.10
2018-09-29T10:13:01.104Z,1.57
2018-09-29T10:15:29.605Z,1.10
2018-09-29T10:17:58.365Z,0.80
2018-09-29T10:20:26.841Z,1.63
2018-09-29T10:22:55.328Z,1.33
2018-09-29T10:25:25.730Z,1.30
2018-09-29T10:27:54.888Z,1.50
2018-09-29T10:30:23.947Z,1.40
2018-09-29T10:32:52.083Z,1.20
2018-09-29T10:35:20.316Z,0.90
2018-09-29T10:37:49.243Z,1.80
2018-09-29T10:40:20.112Z,1.57
2018-09-29T10:42:48.238Z,1.20
2018-09-29T10:45:16.771Z,1.50
2018-09-29T10:47:45.104Z,1.23
2018-09-29T10:50:13.655Z,1.07
2018-09-29T10:52:42.593Z,1.70
2018-09-29T10:55:10.766Z,1.50
2018-09-29T10:57:39.400Z,1.47
2018-09-29T11:00:08.517Z,1.57
2018-09-29T11:02:37.105Z,1.47
2018-09-29T11:05:05.452Z,1.70
2018-09-29T11:07:35.399Z,1.32
2018-09-29T11:10:04.967Z,1.73
2018-09-29T11:12:33.460Z,1.40
2018-09-29T11:15:02.172Z,1.97
2018-09-29T11:17:31.324Z,1.70
2018-09-29T11:19:59.966Z,1.60
2018-09-29T11:22:29.631Z,1.10
2018-09-29T11:24:57.945Z,1.43
2018-09-29T11:27:26.713Z,1.10
2018-09-29T11:29:55.487Z,1.40
2018-09-29T11:32:24.768Z,1.60
2018-09-29T11:34:53.865Z,1.33
2018-09-29T11:37:22.273Z,1.10
2018-09-29T11:39:50.397Z,1.43
2018-09-29T11:42:18.527Z,1.27
2018-09-29T11:44:47.017Z,1.30
2018-09-29T11:47:15.581Z,1.47
2018-09-29T11:49:43.718Z,0.97
2018-09-29T11:52:12.197Z,1.10
2018-09-29T11:54:40.667Z,1.30
2018-09-29T11:57:08.827Z,1.40
2018-09-29T11:59:38.062Z,1.03
2018-09-29T12:02:06.370Z,1.57
2018-09-29T12:04:35.032Z,1.40
2018-09-29T12:07:03.437Z,1.20
2018-09-29T12:09:31.749Z,1.43
2018-09-29T12:12:00.385Z,1.23
2018-09-29T12:14:29.205Z,1.50
2018-09-29T12:16:57.423Z,1.33
2018-09-29T12:19:26.209Z,1.30
2018-09-29T12:21:54.820Z,1.20
2018-09-29T12:24:23.592Z,1.37
2018-09-29T12:26:52.585Z,1.50
2018-09-29T12:29:20.809Z,1.40
2018-09-29T12:31:50.437Z,1.07
2018-09-29T12:34:18.580Z,1.30
2018-09-29T12:36:47.165Z,1.30
2018-09-29T12:39:16.513Z,1.30
2018-09-29T12:41:47.136Z,1.30
2018-09-29T12:44:15.736Z,1.00
2018-09-29T12:46:44.616Z,1.20
2018-09-29T12:49:13.795Z,1.33
2018-09-29T12:51:42.017Z,1.20
2018-09-29T12:54:11.001Z,1.37
2018-09-29T12:56:39.472Z,1.00
2018-09-29T12:59:19.100Z,1.45
2018-09-29T13:01:47.880Z,1.10
2018-09-29T13:04:16.382Z,1.67
2018-09-29T13:06:44.959Z,1.03
2018-09-29T13:09:13.837Z,1.30
2018-09-29T13:11:42.573Z,1.00
2018-09-29T13:14:11.052Z,1.13
2018-09-29T13:16:39.606Z,1.37
2018-09-29T13:19:09.308Z,1.20
2018-09-29T13:21:39.161Z,1.10
2018-09-29T13:24:09.969Z,1.10
2018-09-29T13:26:39.049Z,1.15
2018-09-29T13:29:09.745Z,1.04
2018-09-29T13:31:40.018Z,1.10
2018-09-29T13:34:10.041Z,1.30
2018-09-29T13:36:39.104Z,1.00
2018-09-29T13:39:13.785Z,1.32
2018-09-29T13:41:42.557Z,1.30
2018-09-29T13:44:14.440Z,1.60
2018-09-29T13:46:42.666Z,1.10
2018-09-29T13:49:13.970Z,1.43
2018-09-29T13:51:43.753Z,1.10
2018-09-29T13:54:12.533Z,1.00
2018-09-29T13:56:40.973Z,1.30
2018-09-29T13:59:12.420Z,1.27
2018-09-29T14:01:44.994Z,1.10
2018-09-29T14:04:16.333Z,1.00
2018-09-29T14:06:45.769Z,1.50
2018-09-29T14:09:14.325Z,1.30
2018-09-29T14:11:46.418Z,1.30
2018-09-29T14:14:16.624Z,1.20
2018-09-29T14:16:45.149Z,1.40
2018-09-29T14:19:14.945Z,1.25
2018-09-29T14:21:44.206Z,1.40
2018-09-29T14:24:13.008Z,1.60
2018-09-29T14:26:41.757Z,1.93
2018-09-29T14:29:12.814Z,1.03
2018-09-29T14:31:41.309Z,1.03
2018-09-29T14:34:13.046Z,1.50
2018-09-29T14:36:42.458Z,1.13
2018-09-29T14:39:11.187Z,1.20
2018-09-29T14:41:40.315Z,1.17
2018-09-29T14:44:10.012Z,1.00
2018-09-29T14:46:38.961Z,1.27
2018-09-29T14:49:08.789Z,1.57
2018-09-29T14:51:37.766Z,1.23
2018-09-29T14:54:06.799Z,1.43
2018-09-29T14:56:35.349Z,1.17
2018-09-29T14:59:05.102Z,1.12
2018-09-29T15:01:33.713Z,1.23
2018-09-29T15:04:02.296Z,1.40
2018-09-29T15:06:31.223Z,1.10
2018-09-29T15:08:59.981Z,1.20
2018-09-29T15:11:28.453Z,1.17
2018-09-29T15:13:57.188Z,1.30
2018-09-29T15:16:25.693Z,1.30
2018-09-29T15:18:53.899Z,1.27
2018-09-29T15:21:22.373Z,1.47
2018-09-29T15:23:50.541Z,1.20
2018-09-29T15:26:19.033Z,1.05
2018-09-29T15:28:47.719Z,1.20
2018-09-29T15:31:16.140Z,1.30
2018-09-29T15:33:44.301Z,1.23
2018-09-29T15:36:13.391Z,1.80
2018-09-29T15:38:42.052Z,1.10
2018-09-29T15:41:10.483Z,1.00
2018-09-29T15:43:38.956Z,1.60
2018-09-29T15:46:07.313Z,1.50
2018-09-29T15:48:36.131Z,1.10
2018-09-29T15:51:04.444Z,1.37
2018-09-29T15:53:33.225Z,1.60
2018-09-29T15:56:01.689Z,1.30
2018-09-29T15:58:30.446Z,1.60
2018-09-29T16:00:58.928Z,1.10
2018-09-29T16:03:27.501Z,2.47
2018-09-29T16:05:56.215Z,6.27
2018-09-29T16:08:24.697Z,1.85
2018-09-29T16:10:53.072Z,5.60
2018-09-29T16:13:21.301Z,2.40
2018-09-29T16:15:49.822Z,1.80
2018-09-29T16:18:18.247Z,1.57
2018-09-29T16:20:46.753Z,1.37
2018-09-29T16:23:15.001Z,1.43
2018-09-29T16:25:43.169Z,1.60
2018-09-29T16:28:11.341Z,1.10
2018-09-29T16:30:39.833Z,1.17
2018-09-29T16:33:09.555Z,1.37
2018-09-29T16:35:38.033Z,1.33
2018-09-29T16:38:06.181Z,1.60
2018-09-29T16:40:34.689Z,2.03
2018-09-29T16:43:03.449Z,2.57
2018-09-29T16:45:32.232Z,1.65
2018-09-29T16:48:00.385Z,1.80
2018-09-29T16:50:28.905Z,1.77
2018-09-29T16:52:57.098Z,1.50
2018-09-29T16:55:25.606Z,1.90
2018-09-29T16:57:54.390Z,2.70
2018-09-29T17:00:26.889Z,2.20
2018-09-29T17:02:55.092Z,1.70
2018-09-29T17:05:23.289Z,2.10
2018-09-29T17:07:51.479Z,1.57
2018-09-29T17:10:19.659Z,1.70
2018-09-29T17:12:48.990Z,1.40
2018-09-29T17:15:18.185Z,1.80
2018-09-29T17:17:46.672Z,1.60
2018-09-29T17:20:15.705Z,1.90
2018-09-29T17:22:44.152Z,2.02
2018-09-29T17:25:12.438Z,2.57
2018-09-29T17:27:41.204Z,1.77
2018-09-29T17:30:09.861Z,1.90
2018-09-29T17:32:38.416Z,1.60
2018-09-29T17:35:06.623Z,2.30
2018-09-29T17:37:36.102Z,2.10
2018-09-29T17:40:07.553Z,1.83
2018-09-29T17:42:36.472Z,1.60
2018-09-29T17:45:05.000Z,1.60
2018-09-29T17:47:38.538Z,3.70
2018-09-29T17:50:14.465Z,2.40
2018-09-29T17:52:43.083Z,3.13
2018-09-29T17:55:11.888Z,3.20
2018-09-29T17:57:40.140Z,2.90
2018-09-29T18:00:09.809Z,2.85
2018-09-29T18:02:38.117Z,4.13
2018-09-29T18:05:06.437Z,4.67
2018-09-29T18:07:34.936Z,3.97
2018-09-29T18:10:03.701Z,4.10
2018-09-29T18:12:32.756Z,4.50
2018-09-29T18:15:01.393Z,5.30
2018-09-29T18:17:29.541Z,4.77
2018-09-29T18:19:58.174Z,4.40
2018-09-29T18:22:26.680Z,3.40
2018-09-29T18:24:55.193Z,3.40
2018-09-29T18:27:23.672Z,3.70
2018-09-29T18:29:52.169Z,3.25
2018-09-29T18:32:20.480Z,2.80
2018-09-29T18:34:48.748Z,2.50
2018-09-29T18:37:17.543Z,2.70
2018-09-29T18:39:46.558Z,2.97
2018-09-29T18:42:16.858Z,2.85
2018-09-29T18:44:47.905Z,2.70
2018-09-29T18:47:18.753Z,2.85
2018-09-29T18:49:47.628Z,3.10
2018-09-29T18:52:16.119Z,3.42
2018-09-29T18:54:44.245Z,2.53
2018-09-29T18:57:12.831Z,2.20
2018-09-29T18:59:41.696Z,1.67
2018-09-29T19:02:10.150Z,2.00
2018-09-29T19:04:38.387Z,2.20
2018-09-29T19:07:06.865Z,2.33
2018-09-29T19:09:35.264Z,2.30
2018-09-29T19:12:03.776Z,3.03
2018-09-29T19:14:32.293Z,3.13
2018-09-29T19:17:00.777Z,2.77
2018-09-29T19:19:29.497Z,2.95
2018-09-29T19:21:57.995Z,3.10
2018-09-29T19:24:26.446Z,4.23
2018-09-29T19:26:54.614Z,3.77
2018-09-29T19:29:22.749Z,3.90
2018-09-29T19:31:51.237Z,4.23
2018-09-29T19:34:19.705Z,3.98
2018-09-29T19:36:48.068Z,4.43
2018-09-29T19:39:17.048Z,3.70
2018-09-29T19:41:45.726Z,3.70
2018-09-29T19:44:14.220Z,4.50
2018-09-29T19:46:42.532Z,4.43
2018-09-29T19:49:14.142Z,4.70
2018-09-29T19:51:44.048Z,4.73
2018-09-29T19:54:12.772Z,5.80
2018-09-29T19:56:40.952Z,4.57
2018-09-29T20:00:04.005Z,4.75
2018-09-29T20:02:36.365Z,5.90
2018-09-29T20:05:04.873Z,9.30
2018-09-29T20:07:33.659Z,7.10
2018-09-29T20:10:02.189Z,6.50
2018-09-29T20:12:30.854Z,7.33
2018-09-29T20:14:59.386Z,6.67
2018-09-29T20:17:28.165Z,6.20
2018-09-29T20:19:56.503Z,7.53
2018-09-29T20:22:25.069Z,6.10
2018-09-29T20:24:53.866Z,6.70
2018-09-29T20:27:22.602Z,6.03
2018-09-29T20:29:51.100Z,6.37
2018-09-29T20:32:19.644Z,6.40
2018-09-29T20:34:48.066Z,5.10
2018-09-29T20:37:16.529Z,5.65
2018-09-29T20:39:45.216Z,5.40
2018-09-29T20:42:13.728Z,4.67
2018-09-29T20:44:42.122Z,5.57
2018-09-29T20:47:10.873Z,4.60
2018-09-29T20:49:39.032Z,3.90
2018-09-29T20:52:07.590Z,4.30
2018-09-29T20:54:35.761Z,4.17
2018-09-29T20:57:04.139Z,4.30
2018-09-29T20:59:32.944Z,3.67
2018-09-29T21:02:01.094Z,3.20
2018-09-29T21:04:29.573Z,3.50
2018-09-29T21:07:00.151Z,3.00
2018-09-29T21:09:36.294Z,4.10
2018-09-29T21:12:05.010Z,3.53
2018-09-29T21:14:33.549Z,3.57
2018-09-29T21:17:02.124Z,3.67
2018-09-29T21:19:30.603Z,3.73
2018-09-29T21:21:58.907Z,3.07
2018-09-29T21:24:27.955Z,3.70
2018-09-29T21:26:56.328Z,3.17
2018-09-29T21:29:24.760Z,3.33
2018-09-29T21:31:52.893Z,3.50
2018-09-29T21:34:21.124Z,4.27
2018-09-29T21:36:49.925Z,4.27
2018-09-29T21:39:18.133Z,4.85
2018-09-29T21:41:46.881Z,4.30
2018-09-29T21:44:15.030Z,4.40
2018-09-29T21:46:43.165Z,4.63
2018-09-29T21:49:11.316Z,5.00
2018-09-29T21:51:39.954Z,5.50
2018-09-29T21:54:08.442Z,4.70
2018-09-29T21:56:37.121Z,5.00
2018-09-29T21:59:12.877Z,5.00
2018-09-29T22:01:41.376Z,5.53
2018-09-29T22:04:10.037Z,4.70
2018-09-29T22:06:38.491Z,4.80
2018-09-29T22:09:07.832Z,4.80
2018-09-29T22:11:36.347Z,5.30
2018-09-29T22:14:05.064Z,6.10
2018-09-29T22:16:33.531Z,4.53
2018-09-29T22:19:02.100Z,5.07
2018-09-29T22:21:30.866Z,5.28
2018-09-29T22:23:58.996Z,5.47
2018-09-29T22:26:27.129Z,5.00
2018-09-29T22:28:55.567Z,4.80
2018-09-29T22:31:24.033Z,5.30
2018-09-29T22:33:52.787Z,4.50
2018-09-29T22:36:21.201Z,4.50
2018-09-29T22:38:49.672Z,5.00
2018-09-29T22:41:18.113Z,4.10
2018-09-29T22:43:46.240Z,5.23
2018-09-29T22:46:14.696Z,4.40
2018-09-29T22:48:42.861Z,5.03
2018-09-29T22:51:11.294Z,4.73
2018-09-29T22:53:39.436Z,5.20
2018-09-29T22:56:08.278Z,5.10
2018-09-29T22:58:36.408Z,4.33
2018-09-29T23:01:05.191Z,5.20
2018-09-29T23:03:33.673Z,5.00
2018-09-29T23:06:02.061Z,4.23
2018-09-29T23:08:30.689Z,5.50
2018-09-29T23:10:58.965Z,4.53
2018-09-29T23:13:27.613Z,5.00
2018-09-29T23:15:56.009Z,5.17
2018-09-29T23:18:24.729Z,5.62
2018-09-29T23:20:53.428Z,5.27
2018-09-29T23:23:22.210Z,4.97
2018-09-29T23:25:50.397Z,5.50
2018-09-29T23:28:19.172Z,5.10
2018-09-29T23:30:47.676Z,5.07
2018-09-29T23:33:15.920Z,4.07
2018-09-29T23:35:44.392Z,5.07
2018-09-29T23:38:12.875Z,5.13
2018-09-29T23:40:41.058Z,5.13
2018-09-29T23:43:10.447Z,5.35
2018-09-29T23:45:39.207Z,4.75
2018-09-29T23:48:08.022Z,5.27
2018-09-29T23:50:36.481Z,5.40
2018-09-29T23:53:05.161Z,5.70
2018-09-29T23:55:33.682Z,5.53
2018-09-29T23:58:02.502Z,5.27
